Airfield :
LOGIN :

Register | Disclaimer

   EN    FR    IT 

 










Legend :    VFR   Marginal VFR   IFR   Intensive IFR   Very Intensive IFR
Visi :
Ceiling :
>= 8 km
>= 3000ft
5 to 8 km
1000 to 3000 ft
1500m to 5 km
500 to 1000 ft
800 to 1500m
200 to 500 ft
< 800m
< 200 ft
Symbols :   Thunderstorms  Fog  Heavy snow  Heavy precipitations  Wind > 20 kt
SIGMETs :     Misc.  Thunderstorms  Icing  Turbulence  Mountain Waves  Volcanic Ashes






- Airport Elevation : 313 ft
- IATA code : LEH


LFOH - Le Havre Octeville

CURRENT METAR :
  • 170430Z AUTO 11002KT 2600 BR OVC041 03/03 Q1009

EXPIRED METARs :
  • 170400Z AUTO 13002KT 2500 BR FEW041 OVC170 03/03 Q1009
  • 170330Z AUTO 13002KT 3900 BR FEW047 OVC170 04/03 Q1008
  • 170300Z AUTO 12003KT 3500 BR NSC 04/03 Q1008
  • 170230Z AUTO 13003KT 6000 2300 NSC 04/04 Q1009
  • 170200Z AUTO 14003KT 7000 NSC 04/04 Q1009
  • 170130Z AUTO 17003KT 9000 FEW043 BKN052 OVC180 05/04 Q1009

TAF TAF LFOH
Valid from the 16 at 12:00 until the 17 at 12:00 UTC


161100Z 1612/1712 11008KT 9999 BKN007 OVC015
BECMG 1614/1616 SCT012 OVC030
BECMG 1620/1624 2000 BR OVC002
PROB40 1700/1709 0200 FG VV///
BECMG 1710/1712 8000 NSW BKN005
ATIS : +33 2 35 54 64 93



MET'MAP, your aeronautical weather chart ! - Copyright ORBIFLY December 2007 - Disclaimer

ORBIFLY MET'MAP TEAM :

Programming & Development : Alexandra Zaïnal
Concept & Development : Baudouin d'Aumeries
Co-Development & Prog : Marc-Olivier Méhu
Technical & hardware support : Manuel Goepfert

Contact : metmap@orbifly.com




SOURCES & CREDITS :

   NOAA